Time;durP1;ratioP1;P1;durP2;ratioP2;P2;SDS_P1;SDS_P2;PMS_P1;PMS_P2;Temp;Humidity;BMP_temperature;BMP_pressure;BME280_temperature;BME280_humidity;BME280_pressure;Samples;Min_cycle;Max_cycle;Signal;HPM_P1;HPM_P2
2022/04/20 00:00:00;;;;;;;3.92;2.40;;;;;;;12.74;35.89;101521.25;4947565;28;123794;-75
2022/04/20 00:02:27;;;;;;;4.75;2.60;;;;;;;12.72;35.89;101525.78;4952411;28;119038;-75
2022/04/20 00:04:55;;;;;;;3.53;2.50;;;;;;;12.68;36.11;101516.19;4948226;28;118955;-74
2022/04/20 00:07:22;;;;;;;3.42;2.42;;;;;;;12.64;36.04;101521.66;4950677;28;123791;-75
2022/04/20 00:09:50;;;;;;;2.90;2.40;;;;;;;12.60;36.07;101522.72;4951563;28;122881;-74
2022/04/20 00:12:17;;;;;;;4.20;2.50;;;;;;;12.57;36.17;101512.19;4957782;28;119277;-75
2022/04/20 00:14:44;;;;;;;3.67;2.38;;;;;;;12.53;36.38;101517.72;4974196;28;118061;-74
2022/04/20 00:17:11;;;;;;;4.25;2.55;;;;;;;12.48;36.14;101515.25;4970773;28;124396;-74
2022/04/20 00:19:38;;;;;;;4.15;2.50;;;;;;;12.43;36.52;101506.59;4952515;28;123100;-74
2022/04/20 00:22:06;;;;;;;3.47;2.53;;;;;;;12.38;36.45;101513.91;4964362;28;118995;-75
2022/04/20 00:24:33;;;;;;;4.00;2.50;;;;;;;12.35;36.22;101514.03;4969641;28;119880;-75
2022/04/20 00:27:00;;;;;;;3.83;2.53;;;;;;;12.32;36.70;101514.16;4948003;28;124065;-74
2022/04/20 00:29:27;;;;;;;3.55;2.47;;;;;;;12.30;36.54;101521.31;4966582;28;122741;-75
2022/04/20 00:31:54;;;;;;;4.13;2.30;;;;;;;12.28;36.62;101513.41;4965851;28;118306;-75
2022/04/20 00:34:22;;;;;;;4.18;2.28;;;;;;;12.27;36.31;101517.00;4951257;28;118622;-75
2022/04/20 00:36:55;;;;;;;5.10;2.60;;;;;;;12.25;36.68;101519.72;4945132;28;124800;-75
2022/04/20 00:39:22;;;;;;;4.18;2.30;;;;;;;12.24;36.53;101518.00;4962625;28;124468;-75
2022/04/20 00:41:49;;;;;;;6.10;2.60;;;;;;;12.24;36.85;101518.00;4951894;28;118975;-75
2022/04/20 00:44:16;;;;;;;15.82;2.60;;;;;;;12.22;36.41;101514.56;4950256;28;119535;-74
2022/04/20 00:46:46;;;;;;;3.50;2.42;;;;;;;12.22;36.76;101519.88;4963304;28;123362;-75
2022/04/20 00:49:15;;;;;;;3.55;2.25;;;;;;;12.20;36.64;101527.00;4932389;28;123977;-74
2022/04/20 00:51:51;;;;;;;5.10;2.40;;;;;;;12.17;36.73;101527.16;4965065;28;118638;-75
2022/04/20 00:54:19;;;;;;;3.85;2.10;;;;;;;12.14;36.62;101526.41;4955830;28;117707;-74
2022/04/20 00:56:47;;;;;;;5.03;2.50;;;;;;;12.12;37.01;101518.50;4967638;28;123937;-75
2022/04/20 00:59:20;;;;;;;4.10;2.60;;;;;;;12.10;36.74;101528.31;4970317;28;122577;-75
2022/04/20 01:01:47;;;;;;;3.40;2.28;;;;;;;12.11;36.85;101527.41;4955239;28;119735;-75
2022/04/20 01:04:14;;;;;;;5.07;2.47;;;;;;;12.11;36.66;101527.41;4951831;28;118986;-75
2022/04/20 01:07:16;;;;;;;4.05;2.50;;;;;;;12.08;36.84;101527.53;4936321;28;123473;-75
2022/04/20 01:10:16;;;;;;;3.72;2.50;;;;;;;12.04;36.79;101525.94;4949133;28;124411;-75
2022/04/20 01:13:01;;;;;;;3.85;2.30;;;;;;;12.00;36.88;101526.97;4944779;28;121080;-74
2022/04/20 01:16:02;;;;;;;4.80;2.53;;;;;;;11.96;36.83;101533.31;4966059;28;119373;-74
2022/04/20 01:18:43;;;;;;;4.30;2.38;;;;;;;11.92;36.88;101537.03;4947935;28;123904;-74
2022/04/20 01:21:30;;;;;;;6.18;2.65;;;;;;;11.88;37.10;101531.81;4966324;28;122270;-74
2022/04/20 01:24:08;;;;;;;4.30;2.55;;;;;;;11.87;36.82;101535.38;4974312;28;118763;-74
2022/04/20 01:26:49;;;;;;;4.25;2.80;;;;;;;11.86;36.81;101532.78;4968483;28;118575;-74
2022/04/20 01:29:48;;;;;;;6.47;3.08;;;;;;;11.84;37.29;101530.19;4968677;28;123610;-75
2022/04/20 01:32:32;;;;;;;4.82;2.80;;;;;;;11.82;37.10;101540.00;4948936;28;122168;-74
2022/04/20 01:35:11;;;;;;;4.10;2.63;;;;;;;11.80;36.99;101533.88;4968105;28;118445;-74
2022/04/20 01:37:39;;;;;;;3.88;2.75;;;;;;;11.79;36.90;101532.19;4968029;28;118658;-74
2022/04/20 01:40:07;;;;;;;5.30;2.60;;;;;;;11.77;37.04;101534.03;4947197;28;123439;-74
2022/04/20 01:42:35;;;;;;;3.40;2.45;;;;;;;11.76;37.06;101526.97;4948691;28;123431;-74
2022/04/20 01:45:05;;;;;;;4.32;2.65;;;;;;;11.74;37.27;101534.13;4964933;28;121365;-74
2022/04/20 01:47:51;;;;;;;3.85;2.47;;;;;;;11.72;37.26;101528.03;4954471;28;119706;-75
2022/04/20 01:53:47;;;;;;;4.57;2.78;;;;;;;11.67;37.18;101532.63;4952353;28;124531;-75
2022/04/20 01:56:23;;;;;;;5.93;2.67;;;;;;;11.62;37.36;101524.88;4951946;28;119443;-75
2022/04/20 01:59:03;;;;;;;5.32;2.65;;;;;;;11.58;37.30;101541.81;4949235;28;118958;-75
2022/04/20 02:04:27;;;;;;;4.00;2.67;;;;;;;11.50;37.66;101531.47;4948075;28;121923;-75
2022/04/20 02:06:55;;;;;;;4.13;2.85;;;;;;;11.49;37.48;101535.06;4930486;28;119231;-75
2022/04/20 02:09:25;;;;;;;5.32;2.42;;;;;;;11.46;37.31;101529.88;4977826;28;119608;-75
2022/04/20 02:12:02;;;;;;;3.65;2.50;;;;;;;11.45;37.34;101537.88;4962184;28;123303;-75
2022/04/20 02:14:47;;;;;;;3.85;2.50;;;;;;;11.43;37.89;101535.31;4962053;28;124364;-75
2022/04/20 02:17:35;;;;;;;5.68;2.75;;;;;;;11.41;37.48;101536.28;4950810;28;120916;-75
2022/04/20 02:20:05;;;;;;;4.05;2.85;;;;;;;11.37;37.56;101535.53;4929958;28;118609;-75
2022/04/20 02:22:32;;;;;;;3.55;2.55;;;;;;;11.33;37.76;101531.25;4945676;28;125123;-75
2022/04/20 02:24:59;;;;;;;3.70;2.53;;;;;;;11.30;37.97;101524.28;4947966;28;124216;-75
2022/04/20 02:27:27;;;;;;;3.92;2.78;;;;;;;11.28;37.85;101530.56;4946219;28;118472;-75
2022/04/20 02:29:54;;;;;;;6.07;2.70;;;;;;;11.27;37.86;101534.16;4964186;28;117929;-75
2022/04/20 02:32:23;;;;;;;4.03;2.90;;;;;;;11.23;37.92;101532.53;4949181;28;123982;-74
2022/04/20 02:34:51;;;;;;;4.78;2.72;;;;;;;11.21;38.25;101539.69;4961818;28;122942;-74
2022/04/20 02:37:18;;;;;;;5.90;2.70;;;;;;;11.20;38.18;101537.94;4946321;28;119544;-75
2022/04/20 02:39:45;;;;;;;6.28;2.90;;;;;;;11.19;38.05;101536.19;4964169;28;119338;-75
2022/04/20 02:42:12;;;;;;;4.72;2.58;;;;;;;11.18;38.03;101539.78;4931869;28;124343;-75
2022/04/20 02:44:40;;;;;;;3.53;2.47;;;;;;;11.18;38.06;101537.13;4949716;28;124600;-75
2022/04/20 02:47:07;;;;;;;4.63;2.90;;;;;;;11.16;38.19;101531.03;4929530;28;118479;-75
2022/04/20 02:49:35;;;;;;;5.60;2.90;;;;;;;11.14;37.96;101532.88;4964934;28;117957;-75
2022/04/20 02:52:03;;;;;;;4.57;2.70;;;;;;;11.13;38.33;101536.44;4948765;28;124154;-75
2022/04/20 02:54:31;;;;;;;5.80;3.30;;;;;;;11.09;38.25;101535.66;4961454;28;123350;-74
2022/04/20 02:56:58;;;;;;;5.47;2.95;;;;;;;11.04;38.00;101543.81;4946101;28;120540;-75
2022/04/20 02:59:26;;;;;;;5.43;3.00;;;;;;;11.03;38.14;101542.06;4961675;28;119839;-75
2022/04/20 03:01:57;;;;;;;4.45;2.83;;;;;;;11.01;38.42;101538.59;4960436;28;124557;-75
2022/04/20 03:04:24;;;;;;;4.72;2.60;;;;;;;10.96;38.61;101545.84;4947674;28;123549;-75
2022/04/20 03:06:51;;;;;;;5.10;2.85;;;;;;;10.93;38.54;101545.97;4961784;28;118168;-75
2022/04/20 03:09:30;;;;;;;6.72;2.70;;;;;;;10.88;38.64;101542.59;4962035;28;117982;-75
2022/04/20 03:11:57;;;;;;;5.00;3.30;;;;;;;10.85;38.60;101542.69;4946854;28;123140;-75
2022/04/20 03:14:24;;;;;;;4.30;3.00;;;;;;;10.81;38.44;101546.38;4945402;28;123098;-75
2022/04/20 03:16:58;;;;;;;5.30;3.30;;;;;;;10.76;38.57;101548.34;4946069;28;119877;-75
2022/04/20 03:19:25;;;;;;;6.15;3.08;;;;;;;10.71;38.69;101552.00;4945026;28;119082;-75
2022/04/20 03:21:52;;;;;;;3.80;2.78;;;;;;;10.68;38.74;101551.22;4945201;28;124778;-75
2022/04/20 03:24:21;;;;;;;4.95;2.78;;;;;;;10.65;38.68;101546.91;4963820;28;123326;-75
2022/04/20 03:27:08;;;;;;;5.57;2.80;;;;;;;10.63;38.79;101559.34;4924618;28;119064;-75
2022/04/20 03:29:48;;;;;;;5.30;3.33;;;;;;;10.61;38.75;101558.53;4946166;28;118353;-75
2022/04/20 03:32:16;;;;;;;5.25;3.05;;;;;;;10.59;38.69;101557.72;4949578;28;123150;-75
2022/04/20 03:34:46;;;;;;;4.90;2.97;;;;;;;10.56;38.52;101557.81;4928457;28;124626;-75
2022/04/20 03:37:14;;;;;;;4.65;3.05;;;;;;;10.55;38.73;101560.50;4948807;28;96795;-75
2022/04/20 03:39:41;;;;;;;5.10;3.22;;;;;;;10.55;38.90;101566.69;4963126;28;118773;-75
2022/04/20 03:42:09;;;;;;;5.15;2.97;;;;;;;10.55;38.73;101572.00;4946991;28;123266;-74
2022/04/20 03:44:38;;;;;;;6.07;3.15;;;;;;;10.54;39.19;101570.25;4947576;28;122884;-75
2022/04/20 03:47:05;;;;;;;4.85;3.05;;;;;;;10.55;38.78;101572.00;4945516;28;120293;-76
2022/04/20 03:49:32;;;;;;;5.00;3.30;;;;;;;10.53;39.05;101573.84;4947511;28;118935;-75
2022/04/20 03:52:01;;;;;;;4.15;3.00;;;;;;;10.50;39.01;101573.91;4946595;28;123161;-75
2022/04/20 03:54:31;;;;;;;5.25;2.95;;;;;;;10.46;39.22;101573.16;4946730;28;123656;-75
2022/04/20 03:57:05;;;;;;;5.00;2.95;;;;;;;10.44;39.18;101563.53;4948583;28;120180;-75
2022/04/20 03:59:38;;;;;;;6.15;3.15;;;;;;;10.41;39.03;101568.94;4959928;28;118704;-74
2022/04/20 04:02:06;;;;;;;5.25;3.22;;;;;;;10.40;39.46;101572.50;4946936;28;123683;-75
2022/04/20 04:04:40;;;;;;;4.93;3.10;;;;;;;10.39;39.51;101570.75;4946075;28;123771;-74
2022/04/20 04:07:17;;;;;;;4.93;3.00;;;;;;;10.40;39.20;101572.50;4947303;28;118515;-75
2022/04/20 04:09:44;;;;;;;5.75;3.00;;;;;;;10.39;39.36;101568.09;4962158;28;119766;-75
2022/04/20 04:12:11;;;;;;;5.55;3.10;;;;;;;10.40;39.20;101567.22;4950523;28;123913;-74
2022/04/20 04:14:47;;;;;;;5.88;3.20;;;;;;;10.41;39.42;101574.22;4948074;28;124350;-75
2022/04/20 04:17:14;;;;;;;5.65;3.00;;;;;;;10.41;39.65;101574.22;4969991;28;119078;-75
2022/04/20 04:19:43;;;;;;;6.15;3.08;;;;;;;10.39;39.15;101576.06;4954821;28;119272;-74
2022/04/20 04:22:10;;;;;;;5.65;2.97;;;;;;;10.39;39.29;101570.75;4971665;28;121953;-75
2022/04/20 04:24:44;;;;;;;6.15;3.00;;;;;;;10.39;39.08;101576.06;4968222;28;125194;-75
2022/04/20 04:27:13;;;;;;;4.30;2.90;;;;;;;10.39;39.40;101576.06;4963989;28;119302;-75
2022/04/20 04:29:41;;;;;;;5.88;2.92;;;;;;;10.39;39.21;101576.06;4950401;28;118583;-75
2022/04/20 04:32:10;;;;;;;4.45;3.00;;;;;;;10.39;39.41;101578.69;4965567;28;124278;-75
2022/04/20 04:34:37;;;;;;;4.88;3.03;;;;;;;10.39;39.01;101586.66;4947883;28;123962;-75
2022/04/20 04:37:09;;;;;;;5.13;3.22;;;;;;;10.38;39.34;101584.91;4955007;28;120143;-75
2022/04/20 04:39:37;;;;;;;4.35;2.88;;;;;;;10.37;39.49;101583.19;4964445;28;120202;-75
2022/04/20 04:42:08;;;;;;;4.38;2.85;;;;;;;10.37;39.60;101588.47;4967176;28;123296;-75
2022/04/20 04:44:35;;;;;;;5.28;3.45;;;;;;;10.35;39.42;101587.66;4963742;28;124119;-75
2022/04/20 04:49:59;;;;;;;5.18;3.10;;;;;;;10.28;39.33;101585.19;4969270;28;118299;-75
2022/04/20 04:52:28;;;;;;;5.60;3.10;;;;;;;10.24;39.63;101591.47;4956886;28;123846;-75
2022/04/20 04:55:01;;;;;;;6.45;3.03;;;;;;;10.22;39.58;101598.59;4957013;28;123009;-75
2022/04/20 04:57:32;;;;;;;5.78;2.95;;;;;;;10.21;39.78;101604.81;4953814;28;119161;-74
2022/04/20 04:59:59;;;;;;;6.10;3.17;;;;;;;10.20;39.64;101600.44;4949636;28;118966;-75
2022/04/20 05:02:27;;;;;;;5.32;2.80;;;;;;;10.21;39.95;101604.81;4962941;28;124187;-75
2022/04/20 05:04:54;;;;;;;5.70;3.10;;;;;;;10.20;39.71;101608.38;4967378;28;123459;-74
2022/04/20 05:07:25;;;;;;;4.75;2.80;;;;;;;10.20;39.87;101603.06;4952913;28;119595;-75
2022/04/20 05:09:56;;;;;;;4.97;3.30;;;;;;;10.22;40.19;101617.13;4968465;28;118499;-75
2022/04/20 05:12:24;;;;;;;5.28;2.63;;;;;;;10.25;40.02;101611.75;4931231;28;123333;-75
2022/04/20 05:14:51;;;;;;;5.80;3.30;;;;;;;10.29;40.01;101623.13;4966161;28;123584;-75
2022/04/20 05:17:21;;;;;;;5.45;3.00;;;;;;;10.31;39.99;101627.47;4946739;28;118527;-75
2022/04/20 05:19:49;;;;;;;6.38;3.53;;;;;;;10.36;40.15;101623.81;4964980;28;117750;-75
2022/04/20 05:22:20;;;;;;;4.63;2.72;;;;;;;10.40;40.21;101625.47;4947079;28;123280;-75
2022/04/20 05:24:47;;;;;;;5.35;3.20;;;;;;;10.41;40.38;101627.19;4938319;28;124064;-75
2022/04/20 05:27:16;;;;;;;5.70;3.58;;;;;;;10.42;40.12;101629.78;4946559;28;119727;-75
2022/04/20 05:29:57;;;;;;;5.70;3.40;;;;;;;10.41;40.30;101627.19;4963296;28;119227;-75
2022/04/20 05:32:25;;;;;;;5.63;3.08;;;;;;;10.43;40.48;101630.66;4946260;28;124086;-74
2022/04/20 05:34:57;;;;;;;5.35;3.28;;;;;;;10.46;40.40;101630.56;4931999;28;123545;-75
2022/04/20 05:42:56;;;;;;;4.97;2.97;;;;;;;10.50;40.33;101632.19;4964385;28;124838;-74
2022/04/20 05:45:23;;;;;;;5.13;2.83;;;;;;;10.52;40.81;101625.06;4969869;28;123093;-75
2022/04/20 05:48:04;;;;;;;7.35;3.55;;;;;;;10.55;40.80;101624.97;4966827;28;119409;-73
2022/04/20 05:50:31;;;;;;;6.20;3.30;;;;;;;10.61;41.11;101629.19;4951191;28;118206;-73
2022/04/20 05:53:00;;;;;;;6.53;3.45;;;;;;;10.66;41.07;101627.25;4946819;28;124200;-74
2022/04/20 05:55:27;;;;;;;7.57;3.28;;;;;;;10.72;40.90;101621.78;4961630;28;124192;-75
2022/04/20 05:57:54;;;;;;;7.18;3.25;;;;;;;10.78;41.04;101620.69;4966351;28;118536;-74
2022/04/20 06:00:21;;;;;;;8.07;3.28;;;;;;;10.85;41.19;101623.09;4959980;28;118578;-74
2022/04/20 06:03:08;;;;;;;5.65;3.20;;;;;;;10.94;41.36;101611.28;4948751;28;124781;-74
2022/04/20 06:05:36;;;;;;;6.75;2.97;;;;;;;11.03;41.18;101615.41;4945174;28;124172;-75
2022/04/20 06:08:13;;;;;;;5.63;3.30;;;;;;;11.12;41.11;101615.09;4946872;28;119510;-75
2022/04/20 06:10:54;;;;;;;6.18;3.42;;;;;;;11.21;40.95;101613.94;4963751;28;118115;-75
2022/04/20 06:13:21;;;;;;;7.43;3.30;;;;;;;11.29;41.32;101611.84;4967300;28;123942;-74
2022/04/20 06:16:07;;;;;;;6.78;3.00;;;;;;;11.39;41.32;101613.25;4961458;28;123919;-75
2022/04/20 06:18:48;;;;;;;4.55;2.75;;;;;;;11.48;41.38;101618.22;4942962;28;120638;-74
2022/04/20 06:21:23;;;;;;;;;;;;;;;11.56;40.77;101614.44;4945319;28;118943;-74
2022/04/20 06:24:11;;;;;;;4.43;2.58;;;;;;;11.66;40.94;101610.53;4962307;28;123901;-76
2022/04/20 06:27:15;;;;;;;7.55;2.70;;;;;;;11.77;40.95;101624.25;4913186;28;124353;-74
2022/04/20 06:29:51;;;;;;;5.20;3.05;;;;;;;11.86;40.96;101623.88;4924798;28;118374;-75
2022/04/20 06:32:27;;;;;;;4.70;2.65;;;;;;;11.97;40.96;101627.97;4947289;28;118441;-74
2022/04/20 06:35:09;;;;;;;6.60;3.17;;;;;;;12.10;41.01;101621.25;4945919;28;123756;-75
2022/04/20 06:37:54;;;;;;;5.90;2.88;;;;;;;12.20;40.83;101627.94;4948380;28;124850;-75
2022/04/20 06:40:35;;;;;;;5.72;2.80;;;;;;;12.33;40.77;101624.81;4945123;28;118856;-74
2022/04/20 06:43:29;;;;;;;4.25;2.38;;;;;;;12.46;40.80;101618.06;4950068;28;119213;-75
2022/04/20 06:46:14;;;;;;;5.43;2.85;;;;;;;12.60;40.88;101625.47;4948166;28;124804;-75
2022/04/20 06:48:58;;;;;;;5.93;2.58;;;;;;;12.76;40.47;101621.25;4946182;28;123532;-75
2022/04/20 07:00:16;;;;;;;4.70;2.33;;;;;;;13.40;40.04;101617.66;4962108;28;123785;-75
2022/04/20 07:03:03;;;;;;;3.65;2.35;;;;;;;13.58;40.12;101604.44;4946628;28;119978;-75
2022/04/20 07:05:47;;;;;;;3.73;2.33;;;;;;;13.72;39.50;101618.00;4965202;28;118954;-74
2022/04/20 07:08:26;;;;;;;3.83;2.40;;;;;;;13.89;39.61;101621.69;4946504;28;124841;-75
2022/04/20 07:11:29;;;;;;;6.00;2.55;;;;;;;14.05;39.33;101619.16;4945054;28;124403;-75
2022/04/20 07:13:57;;;;;;;4.13;2.50;;;;;;;14.17;38.91;101619.44;4946370;28;119676;-75
2022/04/20 07:16:24;;;;;;;4.13;2.47;;;;;;;14.27;38.73;101613.69;4946131;28;119607;-75
2022/04/20 07:19:03;;;;;;;4.90;2.75;;;;;;;14.38;38.71;101616.69;4945825;28;123298;-75
2022/04/20 07:21:43;;;;;;;4.20;2.42;;;;;;;14.50;38.78;101616.06;4945570;28;123925;-74
2022/04/20 07:24:28;;;;;;;4.30;2.60;;;;;;;14.63;38.54;101611.03;4960148;28;119418;-75
2022/04/20 07:27:16;;;;;;;6.22;2.40;;;;;;;14.77;38.57;101621.03;4946179;28;119470;-75
2022/04/20 07:30:06;;;;;;;5.25;2.53;;;;;;;14.93;38.91;101619.28;4945750;28;124148;-74
2022/04/20 07:32:54;;;;;;;4.50;2.70;;;;;;;15.10;38.42;101631.75;4952930;28;124174;-74
2022/04/20 07:35:52;;;;;;;5.90;2.45;;;;;;;15.25;38.19;101624.78;4965125;28;118892;-74
2022/04/20 07:38:52;;;;;;;4.13;2.45;;;;;;;15.38;38.28;101625.84;4953670;28;118455;-75
2022/04/20 07:41:40;;;;;;;4.97;2.42;;;;;;;15.49;37.67;101632.44;4964650;28;124992;-75
2022/04/20 07:44:26;;;;;;;3.67;2.40;;;;;;;15.60;37.56;101623.88;4967334;28;124087;-74
2022/04/20 07:47:08;;;;;;;4.13;2.15;;;;;;;15.68;37.32;101624.31;4969021;28;119337;-75
2022/04/20 07:53:09;;;;;;;4.22;2.60;;;;;;;15.89;37.41;101625.84;4970234;28;123837;-75
2022/04/20 07:55:47;;;;;;;3.85;2.25;;;;;;;16.02;37.23;101631.38;4969527;28;123965;-74
2022/04/20 07:58:33;;;;;;;5.07;2.50;;;;;;;16.19;37.22;101626.91;4969430;28;119117;-75
2022/04/20 08:01:23;;;;;;;4.85;2.80;;;;;;;16.37;37.21;101631.22;4966791;28;118774;-75
2022/04/20 08:04:02;;;;;;;4.18;2.65;;;;;;;16.49;36.92;101625.16;4970655;28;125375;-75
2022/04/20 08:06:42;;;;;;;4.50;2.38;;;;;;;16.65;36.85;101624.25;4968622;28;123831;-75
2022/04/20 08:09:09;;;;;;;3.97;2.60;;;;;;;16.78;36.45;101629.75;4964911;28;119537;-74
2022/04/20 08:11:37;;;;;;;3.83;2.53;;;;;;;16.87;36.41;101631.94;4948554;28;119656;-75
2022/04/20 08:14:11;;;;;;;4.47;2.72;;;;;;;16.97;36.31;101634.91;4965524;28;123343;-74
2022/04/20 08:16:50;;;;;;;5.07;2.42;;;;;;;17.09;36.30;101644.91;4964788;28;123595;-75
2022/04/20 08:19:26;;;;;;;6.10;2.60;;;;;;;17.17;36.15;101637.28;4949608;28;120053;-74
2022/04/20 08:22:14;;;;;;;6.18;2.70;;;;;;;17.24;35.77;101648.50;4947596;28;119737;-74
2022/04/20 08:24:45;;;;;;;4.93;2.60;;;;;;;17.31;35.97;101644.50;4966976;28;124854;-75
2022/04/20 08:27:14;;;;;;;5.35;2.50;;;;;;;17.41;35.68;101644.78;4952303;28;124407;-75
2022/04/20 08:29:42;;;;;;;3.15;2.28;;;;;;;17.49;35.62;101640.66;4966653;28;119145;-76
2022/04/20 08:32:12;;;;;;;3.05;2.33;;;;;;;17.57;35.30;101644.69;4963119;28;120409;-74
2022/04/20 08:34:39;;;;;;;3.92;2.30;;;;;;;17.60;35.36;101640.00;4948465;28;123828;-74
2022/04/20 08:37:26;;;;;;;7.82;2.90;;;;;;;17.69;35.39;101643.94;4962677;28;124547;-75
2022/04/20 08:39:53;;;;;;;7.28;2.85;;;;;;;17.81;35.13;101636.94;4931441;28;118277;-74
2022/04/20 08:42:21;;;;;;;5.20;2.40;;;;;;;17.92;35.22;101639.00;4947698;28;118851;-75
2022/04/20 08:44:50;;;;;;;4.18;2.20;;;;;;;18.05;34.74;101645.28;4965027;28;123065;-75
2022/04/20 08:47:21;;;;;;;3.15;2.28;;;;;;;18.13;34.34;101644.81;4966274;28;123386;-75
2022/04/20 08:49:52;;;;;;;3.58;2.50;;;;;;;18.18;34.68;101637.34;4948237;28;118694;-74
2022/04/20 08:52:37;;;;;;;3.40;2.22;;;;;;;18.30;34.50;101633.84;4966274;28;118587;-74
2022/04/20 08:55:16;;;;;;;3.67;2.13;;;;;;;18.42;34.44;101638.41;4948089;28;124654;-74
2022/04/20 08:57:46;;;;;;;3.10;1.98;;;;;;;18.54;34.36;101635.88;4932688;28;123368;-74
2022/04/20 09:00:22;;;;;;;3.67;2.35;;;;;;;18.64;34.11;101637.00;4947329;28;119778;-75
2022/04/20 09:02:57;;;;;;;3.63;2.13;;;;;;;18.76;33.93;101641.56;4965631;28;120165;-74
2022/04/20 09:05:30;;;;;;;7.18;2.10;;;;;;;18.85;33.69;101646.34;4965542;28;122930;-74
2022/04/20 09:07:57;;;;;;;3.78;2.45;;;;;;;18.91;33.31;101633.44;4949023;28;124690;-74
2022/04/20 09:10:25;;;;;;;4.75;2.28;;;;;;;18.94;33.10;101639.47;4969409;28;119933;-74
2022/04/20 09:13:04;;;;;;;3.40;2.08;;;;;;;18.95;33.10;101629.59;4952651;28;118760;-74
2022/04/20 09:15:32;;;;;;;5.07;2.03;;;;;;;18.97;32.83;101633.91;4969081;28;123138;-74
2022/04/20 09:18:04;;;;;;;5.72;2.17;;;;;;;18.98;33.08;101629.38;4952520;28;122716;-74
2022/04/20 09:20:32;;;;;;;2.78;1.92;;;;;;;19.01;33.00;101624.66;4969253;28;119639;-74
2022/04/20 09:23:10;;;;;;;3.85;2.20;;;;;;;19.10;32.62;101633.94;4969859;28;118621;-74
2022/04/20 09:25:51;;;;;;;3.35;2.15;;;;;;;19.14;32.67;101627.38;4967716;28;124678;-74
2022/04/20 09:28:19;;;;;;;3.30;2.17;;;;;;;19.22;32.69;101627.69;4969090;28;123756;-74
2022/04/20 09:30:50;;;;;;;4.57;2.38;;;;;;;19.29;32.69;101627.25;4969364;28;119393;-74
2022/04/20 09:33:17;;;;;;;4.38;2.10;;;;;;;19.36;32.38;101617.81;4974496;28;116661;-74
2022/04/20 09:35:48;;;;;;;3.28;2.20;;;;;;;19.39;32.33;101618.47;4974297;28;124336;-74
2022/04/20 09:38:21;;;;;;;4.82;2.20;;;;;;;19.45;31.86;101617.19;5006680;28;122640;-75
2022/04/20 09:41:10;;;;;;;3.63;2.30;;;;;;;19.48;31.91;101611.59;4981174;28;119151;-75
2022/04/20 09:43:38;;;;;;;3.92;2.30;;;;;;;19.48;31.57;101611.59;4974229;28;118052;-75
2022/04/20 09:49:09;;;;;;;4.45;2.30;;;;;;;19.57;32.01;101597.53;4967088;28;124101;-77
2022/04/20 09:51:38;;;;;;;5.63;2.13;;;;;;;19.65;31.79;101603.19;4966481;28;120816;-77
2022/04/20 09:54:26;;;;;;;2.80;1.88;;;;;;;19.69;32.00;101603.00;4966812;28;119467;-77
2022/04/20 09:57:10;;;;;;;3.78;2.33;;;;;;;19.73;31.61;101599.13;4949320;28;123870;-77
2022/04/20 09:59:55;;;;;;;4.80;2.08;;;;;;;19.80;31.95;101601.28;4944900;28;124521;-78
2022/04/20 10:02:51;;;;;;;5.05;2.03;;;;;;;19.88;31.16;101598.03;4939155;28;118191;-77
2022/04/20 10:05:20;;;;;;;4.03;1.90;;;;;;;19.93;30.64;101601.25;4962873;28;118796;-77
2022/04/20 10:07:58;;;;;;;3.10;2.10;;;;;;;19.94;30.66;101592.19;4942755;28;123692;-77
2022/04/20 10:10:29;;;;;;;;;;;;;;;19.96;31.48;101584.03;4947311;28;125186;-77
2022/04/20 10:12:57;;;;;;;2.35;1.80;;;;;;;20.03;30.62;101580.78;4935942;28;117643;-76
2022/04/20 10:18:24;;;;;;;3.58;2.42;;;;;;;20.16;30.24;101587.94;4948541;28;124303;-75
2022/04/20 10:20:56;;;;;;;4.80;2.05;;;;;;;20.21;30.59;101583.06;4945255;28;123090;-76
2022/04/20 10:23:24;;;;;;;3.00;1.80;;;;;;;20.26;29.81;101583.59;4949978;28;119844;-77
2022/04/20 10:25:53;;;;;;;2.90;2.20;;;;;;;20.28;29.83;101572.72;4948786;28;119292;-76
2022/04/20 10:28:39;;;;;;;2.83;1.90;;;;;;;20.32;30.19;101564.28;4950126;28;123857;-77
2022/04/20 10:31:18;;;;;;;2.97;1.90;;;;;;;20.41;29.95;101569.00;4947614;28;123402;-77
2022/04/20 10:33:49;;;;;;;3.10;2.05;;;;;;;20.50;30.18;101563.91;4950828;28;118761;-77
2022/04/20 10:36:32;;;;;;;4.18;2.33;;;;;;;20.55;29.88;101559.00;4958701;28;119133;-77
2022/04/20 10:39:27;;;;;;;3.30;2.10;;;;;;;20.58;29.84;101556.09;4940638;28;123743;-78
2022/04/20 10:42:16;;;;;;;2.88;1.98;;;;;;;20.63;29.57;101556.66;4949306;28;123869;-79
2022/04/20 10:44:55;;;;;;;3.13;2.10;;;;;;;20.65;29.45;101552.00;4959494;28;120152;-76
2022/04/20 10:47:28;;;;;;;2.95;1.80;;;;;;;20.68;29.25;101554.47;4955220;28;119684;-77
2022/04/20 10:50:14;;;;;;;2.72;2.13;;;;;;;20.70;29.32;101547.13;4968673;28;125054;-78
2022/04/20 10:52:46;;;;;;;2.35;1.90;;;;;;;20.73;29.16;101546.88;4957895;28;123960;-77
2022/04/20 10:55:13;;;;;;;3.13;1.80;;;;;;;20.77;28.97;101542.97;4976423;28;117700;-78
2022/04/20 10:57:42;;;;;;;2.42;1.88;;;;;;;20.82;29.02;101544.47;4962728;28;118629;-78
2022/04/20 11:00:33;;;;;;;4.15;1.88;;;;;;;20.83;29.44;101538.09;4957921;28;123722;-76
2022/04/20 11:03:06;;;;;;;2.40;1.75;;;;;;;20.86;29.16;101524.41;4947645;28;122671;-77
2022/04/20 11:05:48;;;;;;;4.05;2.00;;;;;;;20.91;29.05;101527.59;4950237;28;119773;-78
2022/04/20 11:08:15;;;;;;;4.55;2.00;;;;;;;20.94;28.68;101521.97;4950437;28;117667;-78
2022/04/20 11:18:38;;;;;;;1.98;1.67;;;;;;;20.93;28.72;101522.97;4952488;28;123903;-77
2022/04/20 11:19:18;;;;;;;3.45;2.20;;;;;;;20.94;28.74;101522.81;4966339;28;118292;-77
2022/04/20 11:22:06;;;;;;;;;;;;;;;20.89;28.86;101513.38;4967297;28;123939;-77
2022/04/20 11:24:40;;;;;;;4.47;2.00;;;;;;;20.93;28.53;101512.19;4953241;28;124043;-77
2022/04/20 11:27:08;;;;;;;5.60;1.85;;;;;;;20.94;28.23;101517.44;4945292;28;119722;-77
2022/04/20 11:29:35;;;;;;;3.20;1.60;;;;;;;20.95;28.16;101507.53;4946030;28;118993;-76
2022/04/20 11:32:04;;;;;;;2.15;1.60;;;;;;;20.96;28.22;101517.31;4970718;28;123903;-77
2022/04/20 11:34:41;;;;;;;2.72;1.92;;;;;;;20.97;28.32;101505.56;4954807;28;123077;-78
2022/04/20 11:37:12;;;;;;;2.47;1.92;;;;;;;20.99;28.36;101514.38;4954219;28;120245;-77
2022/04/20 11:39:39;;;;;;;11.00;2.30;;;;;;;21.00;27.97;101516.09;4948823;28;118941;-76
2022/04/20 11:42:07;;;;;;;2.97;2.10;;;;;;;21.03;28.01;101505.09;4953764;28;124007;-77
2022/04/20 11:44:34;;;;;;;4.30;2.10;;;;;;;21.07;28.22;101503.84;4948996;28;124349;-79
2022/04/20 11:47:10;;;;;;;3.17;1.90;;;;;;;21.11;28.47;101502.63;4950525;28;117898;-78
2022/04/20 11:49:41;;;;;;;2.83;2.30;;;;;;;21.17;28.58;101499.47;4966174;28;118254;-78
2022/04/20 11:52:14;;;;;;;5.90;2.92;;;;;;;21.26;28.47;101502.41;4956702;28;124035;-79
2022/04/20 11:54:46;;;;;;;2.72;2.00;;;;;;;21.27;28.13;101490.66;4944475;28;124893;-78
2022/04/20 11:57:28;;;;;;;2.60;1.90;;;;;;;21.31;28.34;101490.28;4963066;28;118598;-77
2022/04/20 11:59:58;;;;;;;5.03;2.20;;;;;;;21.33;27.96;101495.56;4949974;28;119190;-77
2022/04/20 12:02:25;;;;;;;2.97;2.10;;;;;;;21.34;27.63;101487.34;4949301;28;123024;-77
2022/04/20 12:05:07;;;;;;;2.67;2.10;;;;;;;21.36;27.96;101484.50;4944707;28;123434;-76
2022/04/20 12:07:38;;;;;;;2.58;2.17;;;;;;;21.39;28.42;101478.88;4928929;28;118312;-77
2022/04/20 12:10:06;;;;;;;3.78;2.20;;;;;;;21.46;28.13;101474.75;4955713;28;119743;-77
2022/04/20 12:12:33;;;;;;;2.53;2.05;;;;;;;21.54;28.32;101483.06;4950786;28;123058;-77
2022/04/20 12:15:08;;;;;;;3.92;2.20;;;;;;;21.64;28.06;101471.53;4953763;28;124435;-77
2022/04/20 12:17:36;;;;;;;4.40;2.33;;;;;;;21.75;28.19;101474.19;4947475;28;119295;-77
2022/04/20 12:20:04;;;;;;;6.65;2.45;;;;;;;21.86;27.96;101471.47;4949855;28;118985;-77
2022/04/20 12:22:34;;;;;;;4.30;1.88;;;;;;;21.91;28.06;101474.66;4968366;28;124276;-75
2022/04/20 12:25:09;;;;;;;4.97;2.30;;;;;;;21.94;28.01;101474.41;4968053;28;124602;-75